ZLXY/XIY METAR and TAF weather

Enter ICAO airport designator
Station Type Date Time Source
ZLXY METAR 2019/02/21 00:00 UTC NOAA

ZLXY 210000Z 04003MPS 3000 HZ NSC 02/M04 Q1028 BECMG TL0040 2500 HZ


Station Type Date Time Source
ZLXY Decoded METAR 2019/02/21 00:00 UTC NOAA

Xian/Xianyang, China (ZLXY) 34-26N 108-45E
Feb 20, 2019 - 07:00 PM EST / 2019.02.21 0000 UTC
Wind: from the NE (040 degrees) at 7 MPH (6 KT):0
Visibility: 1 mile(s):0
Weather: haze
Temperature: 35 F (2 C)
Windchill: 28 F (-2 C):1
Dew Point: 24 F (-4 C)
Relative Humidity: 64%
Pressure (altimeter): 30.36 in. Hg (1028 hPa)
ob: ZLXY 210000Z 04003MPS 3000 HZ NSC 02/M04 Q1028 BECMG TL0040 2500 HZ
cycle: 0

Station Type Date Time Source
ZLXY TAF 2019/02/20 18:03 UTC NOAA

TAF ZLXY 201507Z 2018/2118 06003MPS 2000 HZ NSC TX06/2107Z TN01/2023Z
BECMG 2102/2103 1400 -RA BR
BECMG 2103/2104 2000
BECMG 2113/2114 1400 BR


Example: see airport list